Time;durP1;ratioP1;P1;durP2;ratioP2;P2;SDS_P1;SDS_P2;PMS_P1;PMS_P2;Temp;Humidity;BMP_temperature;BMP_pressure;BME280_temperature;BME280_humidity;BME280_pressure;Samples;Min_cycle;Max_cycle;Signal;HPM_P1;HPM_P2
2022/10/15 00:00:25;;;;;;;135.90;6.43;;;17.30;67.60;;;;;;5023469;28;20076;-48
2022/10/15 00:02:52;;;;;;;20.17;4.40;;;17.30;67.90;;;;;;5026548;28;20045;-53
2022/10/15 00:05:21;;;;;;;46.83;4.80;;;17.20;68.10;;;;;;5026901;28;20053;-51
2022/10/15 00:07:48;;;;;;;235.40;9.48;;;17.20;68.40;;;;;;5028123;28;20053;-52
2022/10/15 00:10:16;;;;;;;56.00;4.45;;;17.20;68.50;;;;;;5024095;28;20053;-51
2022/10/15 00:12:44;;;;;;;67.40;4.78;;;17.20;68.70;;;;;;5026771;28;20060;-48
2022/10/15 00:15:11;;;;;;;131.90;6.38;;;17.20;68.90;;;;;;5025745;28;20512;-53
2022/10/15 00:17:39;;;;;;;109.20;5.18;;;17.10;69.00;;;;;;5028770;28;20394;-50
2022/10/15 00:20:09;;;;;;;125.90;6.68;;;17.10;69.20;;;;;;5026170;28;20528;-51
2022/10/15 00:22:38;;;;;;;190.27;6.88;;;17.10;69.40;;;;;;5025006;28;20056;-49
2022/10/15 00:25:06;;;;;;;3.28;2.95;;;17.10;69.50;;;;;;5026139;28;20061;-53
2022/10/15 00:27:34;;;;;;;63.63;4.97;;;17.10;69.60;;;;;;5026758;28;20053;-48
2022/10/15 00:30:02;;;;;;;3.83;2.90;;;17.10;69.70;;;;;;5023574;28;20413;-54
2022/10/15 00:32:29;;;;;;;3.60;3.30;;;17.10;69.80;;;;;;5021114;28;20053;-52
2022/10/15 00:34:57;;;;;;;4.35;3.95;;;17.10;69.80;;;;;;5022658;28;20528;-51
2022/10/15 00:37:24;;;;;;;3.75;3.45;;;17.10;69.70;;;;;;5026389;28;20537;-53
2022/10/15 00:39:53;;;;;;;3.97;3.20;;;17.20;69.70;;;;;;5025353;28;20057;-53
2022/10/15 00:42:20;;;;;;;4.25;3.85;;;17.20;69.70;;;;;;5020771;28;20061;-53
2022/10/15 00:44:51;;;;;;;3.65;3.22;;;17.20;69.60;;;;;;5024440;28;20076;-51
2022/10/15 00:47:24;;;;;;;5.07;2.95;;;17.30;69.60;;;;;;5023068;28;20057;-50
2022/10/15 00:49:57;;;;;;;4.73;3.60;;;17.30;69.40;;;;;;5023950;28;20064;-50
2022/10/15 00:52:29;;;;;;;4.60;3.50;;;17.30;69.20;;;;;;5023260;28;20506;-51
2022/10/15 00:55:02;;;;;;;5.85;3.45;;;17.30;69.00;;;;;;5026027;28;20057;-49
2022/10/15 00:57:31;;;;;;;5.22;3.70;;;17.40;68.90;;;;;;5025404;28;20061;-54
2022/10/15 01:00:02;;;;;;;4.03;3.47;;;17.40;68.80;;;;;;5024079;28;20053;-49
2022/10/15 01:02:29;;;;;;;4.40;4.00;;;17.40;68.70;;;;;;5023281;28;20053;-50
2022/10/15 01:04:57;;;;;;;6.20;3.88;;;17.40;68.60;;;;;;5024567;28;20064;-53
2022/10/15 01:07:24;;;;;;;5.00;4.50;;;17.40;68.50;;;;;;5025451;28;20049;-52
2022/10/15 01:09:51;;;;;;;5.28;4.38;;;17.40;68.40;;;;;;5023810;28;20053;-50
2022/10/15 01:12:30;;;;;;;9.98;5.18;;;17.40;68.30;;;;;;5021800;28;20049;-53
2022/10/15 01:15:08;;;;;;;5.13;4.10;;;17.40;68.20;;;;;;5024078;28;20061;-52
2022/10/15 01:17:41;;;;;;;5.03;4.53;;;17.40;68.10;;;;;;5025439;28;20068;-49
2022/10/15 01:20:41;;;;;;;4.72;4.20;;;17.50;68.00;;;;;;5021502;28;20056;-52
2022/10/15 01:23:47;;;;;;;6.15;4.97;;;17.40;67.90;;;;;;5025184;28;20056;-53
2022/10/15 01:26:38;;;;;;;4.18;3.78;;;17.50;67.90;;;;;;5023323;28;20457;-54
2022/10/15 01:29:17;;;;;;;7.65;5.32;;;17.50;67.70;;;;;;5024597;28;20061;-52
2022/10/15 01:31:55;;;;;;;8.52;6.22;;;17.50;67.60;;;;;;5020060;28;20053;-52
2022/10/15 01:34:30;;;;;;;11.35;6.95;;;17.50;67.60;;;;;;5023261;28;20060;-51
2022/10/15 01:37:07;;;;;;;10.40;6.95;;;17.50;67.50;;;;;;5022546;28;20060;-52
2022/10/15 01:39:39;;;;;;;12.70;7.38;;;17.50;67.50;;;;;;5022340;28;20061;-51
2022/10/15 01:42:13;;;;;;;10.63;7.15;;;17.50;67.40;;;;;;5023683;28;20497;-52
2022/10/15 01:44:44;;;;;;;10.18;7.15;;;17.50;67.40;;;;;;5025591;28;20056;-52
2022/10/15 01:47:19;;;;;;;10.70;7.38;;;17.50;67.40;;;;;;5023295;28;20057;-52
2022/10/15 01:49:49;;;;;;;8.98;6.45;;;17.40;67.30;;;;;;5024929;28;20049;-54
2022/10/15 01:52:20;;;;;;;8.38;5.28;;;17.40;67.20;;;;;;5019935;28;20433;-52
2022/10/15 01:54:50;;;;;;;5.18;3.72;;;17.50;67.20;;;;;;5024371;28;20523;-49
2022/10/15 01:57:19;;;;;;;4.70;2.90;;;17.50;67.20;;;;;;5024418;28;20064;-50
2022/10/15 01:59:46;;;;;;;3.50;2.92;;;17.40;67.10;;;;;;5023918;28;20049;-53
2022/10/15 02:02:16;;;;;;;3.45;2.53;;;17.40;67.10;;;;;;5019111;28;20049;-54
2022/10/15 02:04:43;;;;;;;3.88;2.50;;;17.40;67.10;;;;;;5024853;28;20050;-53
2022/10/15 02:07:15;;;;;;;2.63;2.40;;;17.40;67.20;;;;;;5024968;28;20421;-52
2022/10/15 02:09:50;;;;;;;3.92;2.42;;;17.40;67.20;;;;;;5021572;28;20049;-51
2022/10/15 02:12:30;;;;;;;6.93;4.55;;;17.40;67.30;;;;;;5020635;28;20390;-54
2022/10/15 02:15:02;;;;;;;5.07;3.90;;;17.40;67.30;;;;;;5023583;28;20497;-54
2022/10/15 02:17:36;;;;;;;4.57;3.20;;;17.40;67.30;;;;;;5022381;28;20069;-54
2022/10/15 02:20:08;;;;;;;4.10;3.15;;;17.40;67.30;;;;;;5019829;28;20056;-52
2022/10/15 02:22:39;;;;;;;4.28;3.40;;;17.40;67.30;;;;;;5024688;28;20569;-50
2022/10/15 02:25:10;;;;;;;7.22;4.20;;;17.40;67.30;;;;;;5024066;28;20485;-54
2022/10/15 02:27:39;;;;;;;4.22;3.13;;;17.40;67.20;;;;;;5022434;28;20049;-53
2022/10/15 02:30:08;;;;;;;3.58;3.00;;;17.40;67.20;;;;;;5020079;28;20065;-51
2022/10/15 02:32:39;;;;;;;3.92;3.33;;;17.40;67.20;;;;;;5021161;28;20049;-50
2022/10/15 02:35:09;;;;;;;3.33;3.03;;;17.40;67.10;;;;;;5023604;28;20065;-50
2022/10/15 02:37:40;;;;;;;2.83;2.25;;;17.40;67.10;;;;;;5023101;28;20064;-49
2022/10/15 02:40:08;;;;;;;3.08;2.40;;;17.40;67.10;;;;;;5021556;28;20827;-52
2022/10/15 02:42:35;;;;;;;2.75;2.45;;;17.40;67.00;;;;;;5022811;28;20057;-51
2022/10/15 02:45:03;;;;;;;2.22;2.00;;;17.40;67.00;;;;;;5024065;28;20054;-53
2022/10/15 02:47:30;;;;;;;3.60;2.40;;;17.40;67.00;;;;;;5025014;28;20137;-53
2022/10/15 02:49:59;;;;;;;3.25;1.95;;;17.40;67.00;;;;;;5024492;28;20046;-50
2022/10/15 02:52:26;;;;;;;2.35;2.05;;;17.40;67.00;;;;;;5024364;28;20517;-52
2022/10/15 02:54:53;;;;;;;2.97;2.30;;;17.40;67.00;;;;;;5025399;28;20060;-54
2022/10/15 02:57:20;;;;;;;2.65;1.90;;;17.40;67.00;;;;;;5025216;28;20068;-53
2022/10/15 02:59:48;;;;;;;2.00;1.77;;;17.40;67.00;;;;;;5025989;28;20417;-50
2022/10/15 03:02:15;;;;;;;3.28;2.10;;;17.40;67.00;;;;;;5026235;28;20053;-53
2022/10/15 03:04:42;;;;;;;2.65;1.90;;;17.40;67.00;;;;;;5025068;28;20524;-52
2022/10/15 03:07:11;;;;;;;2.53;2.03;;;17.40;67.00;;;;;;5021995;28;20053;-51
2022/10/15 03:09:38;;;;;;;3.58;2.20;;;17.40;67.00;;;;;;5026051;28;20049;-50
2022/10/15 03:12:05;;;;;;;2.72;2.38;;;17.40;66.90;;;;;;5022975;28;20054;-53
2022/10/15 03:14:33;;;;;;;2.60;2.40;;;17.40;66.90;;;;;;5023649;28;20056;-53
2022/10/15 03:17:00;;;;;;;2.67;2.30;;;17.40;66.80;;;;;;5028508;28;20056;-54
2022/10/15 03:19:27;;;;;;;3.20;2.40;;;17.30;66.80;;;;;;5025796;28;20049;-53
2022/10/15 03:21:54;;;;;;;2.90;2.17;;;17.40;66.90;;;;;;5024929;28;20478;-52
2022/10/15 03:24:23;;;;;;;2.80;2.40;;;17.40;66.90;;;;;;5028043;28;20058;-54
2022/10/15 03:26:50;;;;;;;2.60;2.40;;;17.40;66.90;;;;;;5026203;28;20056;-54
2022/10/15 03:29:17;;;;;;;3.45;2.50;;;17.40;66.90;;;;;;5027302;28;20061;-53
2022/10/15 03:31:45;;;;;;;2.40;2.20;;;17.40;67.60;;;;;;5025287;28;20052;-54
2022/10/15 03:34:12;;;;;;;6.35;3.22;;;17.30;66.80;;;;;;5027267;28;20492;-53
2022/10/15 03:36:39;;;;;;;2.15;1.95;;;17.30;66.90;;;;;;5026475;28;20053;-53
2022/10/15 03:39:07;;;;;;;3.25;2.50;;;17.30;66.90;;;;;;5027199;28;20064;-53
2022/10/15 03:41:35;;;;;;;2.58;2.35;;;17.30;66.90;;;;;;5025140;28;21014;-53
2022/10/15 03:44:04;;;;;;;3.65;2.60;;;17.30;66.90;;;;;;5026680;28;20065;-53
2022/10/15 03:46:31;;;;;;;3.45;2.70;;;17.30;66.90;;;;;;5021178;28;21209;-54
2022/10/15 03:48:59;;;;;;;7.22;2.55;;;17.30;66.80;;;;;;5024569;28;20053;-54
2022/10/15 03:51:26;;;;;;;3.15;2.60;;;17.30;66.80;;;;;;5024370;28;20045;-54
2022/10/15 03:53:53;;;;;;;3.55;2.75;;;17.30;66.80;;;;;;5026632;28;20057;-54
2022/10/15 03:56:21;;;;;;;4.53;2.65;;;17.30;66.70;;;;;;5025470;28;20053;-54
2022/10/15 03:58:49;;;;;;;3.47;2.85;;;17.30;66.70;;;;;;5025789;28;20049;-52
2022/10/15 04:01:18;;;;;;;4.38;3.35;;;17.30;66.70;;;;;;5024700;28;20053;-52
2022/10/15 04:03:45;;;;;;;3.08;2.42;;;17.30;66.70;;;;;;5028534;28;20501;-53
2022/10/15 04:06:13;;;;;;;3.53;2.45;;;17.20;66.60;;;;;;5031793;28;20064;-51
2022/10/15 04:08:40;;;;;;;2.72;2.20;;;17.30;66.70;;;;;;5043379;28;20062;-53
2022/10/15 04:11:07;;;;;;;2.95;2.35;;;17.30;66.60;;;;;;5036036;28;20060;-52
2022/10/15 04:13:34;;;;;;;3.42;2.47;;;17.30;66.60;;;;;;5048710;28;20049;-54
2022/10/15 04:16:06;;;;;;;3.00;2.50;;;17.30;66.50;;;;;;5031344;28;20056;-53
2022/10/15 04:18:33;;;;;;;2.58;2.13;;;17.30;66.50;;;;;;5017062;28;20053;-54
2022/10/15 04:21:01;;;;;;;2.28;1.65;;;17.20;66.40;;;;;;5022631;28;20054;-54
2022/10/15 04:23:28;;;;;;;2.22;1.90;;;17.20;66.30;;;;;;5040398;28;20049;-53
2022/10/15 04:25:59;;;;;;;2.33;1.75;;;17.20;66.30;;;;;;5030150;28;20049;-54
2022/10/15 04:28:26;;;;;;;3.22;2.08;;;17.20;66.20;;;;;;5040722;28;20053;-53
2022/10/15 04:30:56;;;;;;;5.70;1.77;;;17.20;66.10;;;;;;5022217;28;20056;-47
2022/10/15 04:33:26;;;;;;;2.38;1.77;;;17.20;66.10;;;;;;5030407;28;20049;-53
2022/10/15 04:35:59;;;;;;;3.88;2.20;;;17.20;66.00;;;;;;5034195;28;20056;-51
2022/10/15 04:38:26;;;;;;;2.30;2.10;;;17.20;66.00;;;;;;5018545;28;20054;-54
2022/10/15 04:41:01;;;;;;;2.45;1.80;;;17.20;66.00;;;;;;5026734;28;20060;-50
2022/10/15 04:43:29;;;;;;;3.30;1.90;;;17.20;66.00;;;;;;5040220;28;22021;-51
2022/10/15 04:45:58;;;;;;;2.70;2.03;;;17.10;66.00;;;;;;5023322;28;20103;-53
2022/10/15 04:48:27;;;;;;;3.20;1.75;;;17.10;66.00;;;;;;5015100;28;20045;-53
2022/10/15 04:50:55;;;;;;;2.53;2.00;;;17.10;66.00;;;;;;5021877;28;20080;-51
2022/10/15 04:53:22;;;;;;;2.97;1.90;;;17.10;65.90;;;;;;5021130;28;20057;-51
2022/10/15 04:55:49;;;;;;;3.25;2.00;;;17.10;65.90;;;;;;5027924;28;20041;-52
2022/10/15 04:58:17;;;;;;;2.13;1.80;;;17.10;65.90;;;;;;5038136;28;20053;-52
2022/10/15 05:00:44;;;;;;;3.20;1.92;;;17.10;65.90;;;;;;5029315;28;20414;-54
2022/10/15 05:03:11;;;;;;;2.00;1.70;;;17.10;65.90;;;;;;5017835;28;20049;-54
2022/10/15 05:05:39;;;;;;;2.92;1.95;;;17.10;65.90;;;;;;5018095;28;20041;-53
2022/10/15 05:08:07;;;;;;;2.72;1.73;;;17.10;65.90;;;;;;5041107;28;20395;-53
2022/10/15 05:10:34;;;;;;;3.63;1.88;;;17.10;65.90;;;;;;5029319;28;20052;-50
2022/10/15 05:13:02;;;;;;;2.05;1.80;;;17.10;65.90;;;;;;5040925;28;20048;-52
2022/10/15 05:15:29;;;;;;;2.10;1.45;;;17.10;66.00;;;;;;5032068;28;20486;-53
2022/10/15 05:17:56;;;;;;;2.50;1.83;;;17.00;65.90;;;;;;5033974;28;20056;-52
2022/10/15 05:20:24;;;;;;;2.47;1.80;;;17.00;66.00;;;;;;5038442;28;20061;-53
2022/10/15 05:22:52;;;;;;;2.72;1.90;;;17.00;66.00;;;;;;5038484;28;20510;-53
2022/10/15 05:25:19;;;;;;;2.10;1.90;;;17.00;66.10;;;;;;5039101;28;20060;-53
2022/10/15 05:27:46;;;;;;;3.28;1.63;;;17.00;66.10;;;;;;5040889;28;20049;-52
2022/10/15 05:30:14;;;;;;;2.10;1.90;;;17.00;66.10;;;;;;5039246;28;20509;-52
2022/10/15 05:32:41;;;;;;;2.40;2.03;;;17.00;66.20;;;;;;5026282;28;20045;-54
2022/10/15 05:35:09;;;;;;;2.45;1.92;;;17.00;66.20;;;;;;5034350;28;20054;-51
2022/10/15 05:37:36;;;;;;;2.90;1.70;;;17.10;66.30;;;;;;5043950;28;20060;-52
2022/10/15 05:40:06;;;;;;;4.13;1.80;;;17.10;66.30;;;;;;5031148;28;20409;-52
2022/10/15 05:42:33;;;;;;;3.15;1.65;;;17.10;66.30;;;;;;5034195;28;20045;-50
2022/10/15 05:45:00;;;;;;;2.70;1.38;;;17.10;66.20;;;;;;5035131;28;20060;-50
2022/10/15 05:47:27;;;;;;;1.92;1.38;;;17.10;66.30;;;;;;5025108;28;20397;-53
2022/10/15 05:49:54;;;;;;;1.85;1.30;;;17.10;66.30;;;;;;5038774;28;20401;-52
2022/10/15 05:52:21;;;;;;;1.25;1.10;;;17.10;66.30;;;;;;5033955;28;20052;-52
2022/10/15 05:54:49;;;;;;;1.40;1.13;;;17.10;66.30;;;;;;5032808;28;20060;-52
2022/10/15 05:57:17;;;;;;;2.33;1.17;;;17.10;66.40;;;;;;5038507;28;20413;-52
2022/10/15 05:59:44;;;;;;;2.60;1.40;;;17.10;66.40;;;;;;5038414;28;20056;-53
2022/10/15 06:02:14;;;;;;;1.60;1.25;;;17.10;66.40;;;;;;5008044;28;20061;-54
2022/10/15 06:04:42;;;;;;;4.85;1.50;;;17.10;66.40;;;;;;5027036;28;20049;-53
2022/10/15 06:07:10;;;;;;;1.48;1.38;;;17.10;66.40;;;;;;5029171;28;20075;-53
2022/10/15 06:09:37;;;;;;;34.50;16.65;;;17.10;66.30;;;;;;5045830;28;20053;-53
2022/10/15 06:12:04;;;;;;;20.58;10.82;;;17.10;66.10;;;;;;5028997;28;20061;-53
2022/10/15 06:14:33;;;;;;;7.93;5.13;;;17.10;66.00;;;;;;5025866;28;20461;-54
2022/10/15 06:17:00;;;;;;;5.40;3.35;;;17.10;65.90;;;;;;5025120;28;20050;-53
2022/10/15 06:19:27;;;;;;;4.55;2.42;;;17.10;65.80;;;;;;5034958;28;20048;-53
2022/10/15 06:21:54;;;;;;;3.47;2.00;;;17.10;65.50;;;;;;5026611;28;20088;-52
2022/10/15 06:24:22;;;;;;;2.95;2.20;;;17.10;65.30;;;;;;5027294;28;20052;-52
2022/10/15 06:26:50;;;;;;;2.70;2.30;;;17.10;65.30;;;;;;5025435;28;20057;-52
2022/10/15 06:29:18;;;;;;;1.98;1.70;;;17.00;65.10;;;;;;5026874;28;20049;-52
2022/10/15 06:31:48;;;;;;;2.17;1.70;;;17.00;65.00;;;;;;5021307;28;20053;-52
2022/10/15 06:34:16;;;;;;;2.83;1.90;;;17.00;65.00;;;;;;5027261;28;20045;-49
2022/10/15 06:36:43;;;;;;;2.42;1.95;;;17.00;65.10;;;;;;5031068;28;20061;-52
2022/10/15 06:39:11;;;;;;;2.78;1.95;;;17.00;65.10;;;;;;5028493;28;20057;-54
2022/10/15 06:41:39;;;;;;;3.25;2.00;;;16.90;65.00;;;;;;5013953;28;20057;-49
2022/10/15 06:44:07;;;;;;;4.57;2.83;;;16.90;65.00;;;;;;5020853;28;20053;-50
2022/10/15 06:46:35;;;;;;;12.02;7.00;;;16.90;65.00;;;;;;5025135;28;20137;-52
2022/10/15 06:49:04;;;;;;;14.27;7.40;;;16.90;65.10;;;;;;5024688;28;20053;-52
2022/10/15 06:51:32;;;;;;;7.22;4.55;;;16.90;65.70;;;;;;5024988;28;20050;-49
2022/10/15 06:54:00;;;;;;;6.03;3.22;;;16.90;65.00;;;;;;5026122;28;20497;-52
2022/10/15 06:56:27;;;;;;;3.25;2.28;;;16.90;65.10;;;;;;5027248;28;20069;-49
2022/10/15 06:58:54;;;;;;;4.22;2.58;;;16.90;65.10;;;;;;5026035;28;20068;-53
2022/10/15 07:01:22;;;;;;;4.32;2.35;;;16.80;65.10;;;;;;5022116;28;20061;-52
2022/10/15 07:03:50;;;;;;;4.40;2.55;;;16.80;65.20;;;;;;5024671;28;20057;-51
2022/10/15 07:06:18;;;;;;;5.07;2.38;;;16.80;65.40;;;;;;5036578;28;20053;-52
2022/10/15 07:08:46;;;;;;;4.80;2.65;;;16.90;65.80;;;;;;5018480;28;20053;-53
2022/10/15 07:11:13;;;;;;;4.28;2.63;;;16.80;65.80;;;;;;5022562;28;20409;-53
2022/10/15 07:13:40;;;;;;;3.85;2.70;;;16.80;66.00;;;;;;5028142;28;20046;-49
2022/10/15 07:16:10;;;;;;;3.83;2.38;;;16.90;66.30;;;;;;5031506;28;20059;-51
2022/10/15 07:18:38;;;;;;;3.20;2.35;;;16.90;66.30;;;;;;5029670;28;20060;-53
2022/10/15 07:21:07;;;;;;;3.75;2.78;;;16.90;66.30;;;;;;5023672;28;20064;-53
2022/10/15 07:23:36;;;;;;;3.05;2.45;;;16.90;66.40;;;;;;5032245;28;20049;-53
2022/10/15 07:26:03;;;;;;;5.10;2.30;;;16.90;66.40;;;;;;5038762;28;20049;-49
2022/10/15 07:28:30;;;;;;;3.05;2.40;;;17.00;66.50;;;;;;5031182;28;20049;-53
2022/10/15 07:31:01;;;;;;;3.03;1.70;;;17.00;66.60;;;;;;5021230;28;20045;-54
2022/10/15 07:33:28;;;;;;;3.97;1.90;;;17.00;66.70;;;;;;5024210;28;20049;-53
2022/10/15 07:35:55;;;;;;;4.65;1.98;;;17.00;66.70;;;;;;5019789;28;20053;-51
2022/10/15 07:38:22;;;;;;;1.80;1.60;;;17.00;66.90;;;;;;5027304;28;20062;-52
2022/10/15 07:40:51;;;;;;;3.15;2.03;;;17.10;67.00;;;;;;5026929;28;20057;-52
2022/10/15 07:43:19;;;;;;;2.72;2.10;;;17.10;67.20;;;;;;5022207;28;20060;-52
2022/10/15 07:45:49;;;;;;;2.28;1.80;;;17.10;67.20;;;;;;5035908;28;20053;-52
2022/10/15 07:48:16;;;;;;;3.13;1.92;;;17.10;67.30;;;;;;5046943;28;20059;-48
2022/10/15 07:50:43;;;;;;;2.40;1.70;;;17.20;67.40;;;;;;5028470;28;20056;-53
2022/10/15 07:53:11;;;;;;;2.72;1.52;;;17.20;67.60;;;;;;5031356;28;20057;-49
2022/10/15 07:55:38;;;;;;;1.65;1.52;;;17.20;67.60;;;;;;5021571;28;20394;-54
2022/10/15 07:58:07;;;;;;;1.42;1.15;;;17.30;67.80;;;;;;5023712;28;20068;-52
2022/10/15 08:00:34;;;;;;;1.33;1.20;;;17.30;67.80;;;;;;5040604;28;20084;-53
2022/10/15 08:03:01;;;;;;;1.52;1.15;;;17.30;67.80;;;;;;5047107;28;20056;-52
2022/10/15 08:05:28;;;;;;;1.33;1.23;;;17.30;67.80;;;;;;5038750;28;20370;-51
2022/10/15 08:07:56;;;;;;;1.85;1.20;;;17.40;67.80;;;;;;5034906;28;20068;-52
2022/10/15 08:10:23;;;;;;;2.25;1.50;;;17.40;67.80;;;;;;5012262;28;20058;-51
2022/10/15 08:12:50;;;;;;;5.85;1.42;;;17.50;67.90;;;;;;5026777;28;20064;-53
2022/10/15 08:15:19;;;;;;;1.60;1.23;;;17.50;68.00;;;;;;5017306;28;20077;-51
2022/10/15 08:17:46;;;;;;;1.88;1.50;;;17.50;68.00;;;;;;5010486;28;20992;-53
2022/10/15 08:20:14;;;;;;;2.33;1.98;;;17.50;67.90;;;;;;5029083;28;20497;-53
2022/10/15 08:22:41;;;;;;;2.13;1.70;;;17.60;67.90;;;;;;5025698;28;20061;-53
2022/10/15 08:25:09;;;;;;;3.22;1.70;;;17.60;67.80;;;;;;5015902;28;20054;-54
2022/10/15 08:27:36;;;;;;;2.13;1.85;;;17.60;67.80;;;;;;5032304;28;20057;-50
2022/10/15 08:30:04;;;;;;;1.80;1.63;;;17.70;68.50;;;;;;5023132;28;20049;-52
2022/10/15 08:32:33;;;;;;;4.75;1.95;;;17.70;67.70;;;;;;5022889;28;20056;-53
2022/10/15 08:35:00;;;;;;;3.30;2.08;;;17.80;67.80;;;;;;5031016;28;20057;-54
2022/10/15 08:37:27;;;;;;;2.58;2.13;;;17.70;67.70;;;;;;5038423;28;20509;-52
2022/10/15 08:39:54;;;;;;;3.30;2.70;;;17.80;67.80;;;;;;5031841;28;20053;-52
2022/10/15 08:42:28;;;;;;;2.63;2.08;;;17.80;68.10;;;;;;5029035;28;20497;-53
2022/10/15 08:44:59;;;;;;;4.30;2.47;;;17.80;67.90;;;;;;5040450;28;20497;-52
2022/10/15 08:47:32;;;;;;;1.80;1.70;;;17.90;68.00;;;;;;5035310;28;20927;-52
2022/10/15 08:50:06;;;;;;;9.98;2.30;;;17.90;67.90;;;;;;5031671;28;20045;-53
2022/10/15 08:52:42;;;;;;;14.07;1.73;;;17.90;67.80;;;;;;5012946;28;20513;-53
2022/10/15 08:55:12;;;;;;;3.13;1.70;;;18.00;67.80;;;;;;5037290;28;20057;-52
2022/10/15 08:57:45;;;;;;;3.88;1.80;;;18.00;67.80;;;;;;5028100;28;20049;-50
2022/10/15 09:00:18;;;;;;;1.50;1.40;;;18.00;67.80;;;;;;5024014;28;20065;-50
2022/10/15 09:02:54;;;;;;;5.20;1.45;;;18.00;67.80;;;;;;5020946;28;20053;-51
2022/10/15 09:05:30;;;;;;;2.60;1.02;;;18.10;67.70;;;;;;5033783;28;20053;-51
2022/10/15 09:08:03;;;;;;;2.35;1.52;;;18.10;67.70;;;;;;5025810;28;20049;-49
2022/10/15 09:10:38;;;;;;;1.80;1.60;;;18.20;67.80;;;;;;5022597;28;20049;-53
2022/10/15 09:13:10;;;;;;;2.38;1.60;;;18.20;67.80;;;;;;5029284;28;20509;-54
2022/10/15 09:15:47;;;;;;;24.48;11.90;;;18.20;67.70;;;;;;5026482;28;20056;-53
2022/10/15 09:18:19;;;;;;;10.88;6.10;;;18.20;67.70;;;;;;5025293;28;20057;-54
2022/10/15 09:20:49;;;;;;;4.50;3.05;;;18.20;67.60;;;;;;5036510;28;20400;-51
2022/10/15 09:23:19;;;;;;;4.05;2.55;;;18.30;67.60;;;;;;5030752;28;20056;-54
2022/10/15 09:25:53;;;;;;;3.00;2.10;;;18.30;67.50;;;;;;5028233;28;20045;-53
2022/10/15 09:28:25;;;;;;;2.25;1.60;;;18.30;67.60;;;;;;5041303;28;20064;-54
2022/10/15 09:30:55;;;;;;;1.60;1.40;;;18.40;67.50;;;;;;5034527;28;20516;-53
2022/10/15 09:33:33;;;;;;;3.15;1.33;;;18.40;67.60;;;;;;5026955;28;20084;-51
2022/10/15 09:36:16;;;;;;;2.10;1.55;;;18.40;67.60;;;;;;5030549;28;20513;-54
2022/10/15 09:38:54;;;;;;;2.47;1.43;;;18.40;67.40;;;;;;5010557;28;20053;-52
2022/10/15 09:41:33;;;;;;;3.63;1.30;;;18.50;67.50;;;;;;5013927;28;20054;-52
2022/10/15 09:44:10;;;;;;;7.93;1.50;;;18.60;68.10;;;;;;5026959;28;20052;-53
2022/10/15 09:46:45;;;;;;;1.52;1.10;;;18.60;68.50;;;;;;5026151;28;20053;-54
2022/10/15 09:49:18;;;;;;;0.90;0.90;;;18.60;68.50;;;;;;5036004;28;20057;-50
2022/10/15 09:51:57;;;;;;;2.30;1.10;;;18.70;68.40;;;;;;5025770;28;20508;-55
2022/10/15 09:54:36;;;;;;;3.60;1.30;;;18.80;68.30;;;;;;5018082;28;20052;-54
2022/10/15 09:57:08;;;;;;;3.60;1.65;;;18.80;68.30;;;;;;5025921;28;20048;-53
2022/10/15 09:59:36;;;;;;;1.63;1.10;;;18.80;68.30;;;;;;5029144;28;20405;-51
2022/10/15 10:02:17;;;;;;;1.15;1.00;;;18.90;68.50;;;;;;5028412;28;20486;-53
2022/10/15 10:04:44;;;;;;;1.80;0.80;;;18.90;68.40;;;;;;5035269;28;20060;-54
2022/10/15 10:07:29;;;;;;;2.45;0.77;;;19.00;68.40;;;;;;5023606;28;20536;-54
2022/10/15 10:09:59;;;;;;;2.63;0.90;;;19.10;68.70;;;;;;5024034;28;20057;-54
2022/10/15 10:12:30;;;;;;;1.25;0.60;;;19.10;68.70;;;;;;5013762;28;20056;-52
2022/10/15 10:15:00;;;;;;;2.15;0.77;;;19.20;68.40;;;;;;5039049;28;20045;-51
2022/10/15 10:17:28;;;;;;;0.82;0.60;;;19.20;68.20;;;;;;5027876;28;20056;-52
2022/10/15 10:20:17;;;;;;;5.75;0.68;;;19.30;67.90;;;;;;5037110;28;20056;-52
2022/10/15 10:22:48;;;;;;;1.13;0.63;;;19.30;67.60;;;;;;5026919;28;20523;-52
2022/10/15 10:25:41;;;;;;;0.75;0.50;;;19.40;67.70;;;;;;5028522;28;20057;-53
2022/10/15 10:28:19;;;;;;;0.60;0.50;;;19.40;67.50;;;;;;5006149;28;20053;-54
2022/10/15 10:31:02;;;;;;;1.38;0.40;;;19.50;67.60;;;;;;5024969;28;20057;-50
2022/10/15 10:33:32;;;;;;;0.47;0.20;;;19.50;67.50;;;;;;5028537;28;20060;-54
2022/10/15 10:35:59;;;;;;;3.50;0.45;;;19.50;67.20;;;;;;5045386;28;20052;-50
2022/10/15 10:38:30;;;;;;;2.75;0.28;;;19.60;67.10;;;;;;5026533;28;20057;-53
2022/10/15 10:41:04;;;;;;;2.60;0.30;;;19.60;67.10;;;;;;5027487;28;20413;-53
2022/10/15 10:43:32;;;;;;;0.32;0.20;;;19.70;67.10;;;;;;5033518;28;20053;-55
2022/10/15 10:46:01;;;;;;;0.10;0.10;;;19.70;66.80;;;;;;5041315;28;20049;-54
2022/10/15 10:48:37;;;;;;;0.30;0.28;;;19.80;66.60;;;;;;5045375;28;20053;-54
2022/10/15 10:51:10;;;;;;;2.47;0.38;;;19.80;66.80;;;;;;5024738;28;20049;-54
2022/10/15 10:53:48;;;;;;;0.65;0.40;;;19.90;66.60;;;;;;5043019;28;20056;-51
2022/10/15 10:56:17;;;;;;;0.38;0.30;;;19.90;66.40;;;;;;5022471;28;20408;-52
2022/10/15 10:58:44;;;;;;;1.02;0.40;;;20.00;66.30;;;;;;5021822;28;20062;-53
2022/10/15 11:01:13;;;;;;;0.70;0.20;;;20.10;66.20;;;;;;5035929;28;20054;-54
2022/10/15 11:03:42;;;;;;;0.30;0.20;;;20.20;66.30;;;;;;5025861;28;20053;-54
2022/10/15 11:06:37;;;;;;;0.80;0.40;;;20.20;66.00;;;;;;5030928;28;20048;-55
2022/10/15 11:09:15;;;;;;;;;;;20.30;65.40;;;;;;5039922;28;20064;-53
2022/10/15 11:11:59;;;;;;;3.80;0.50;;;20.40;65.60;;;;;;5040795;28;19924;-56
2022/10/15 11:14:32;;;;;;;;;;;20.40;64.30;;;;;;5026537;28;20053;-54
2022/10/15 11:17:07;;;;;;;0.22;0.10;;;20.60;64.50;;;;;;5041166;28;20296;-55
2022/10/15 11:19:39;;;;;;;0.35;0.28;;;20.60;63.70;;;;;;5027541;28;20046;-54
2022/10/15 11:22:30;;;;;;;1.85;0.22;;;20.60;63.00;;;;;;5030183;28;20052;-55
2022/10/15 11:25:08;;;;;;;0.50;0.20;;;20.70;63.10;;;;;;5032283;28;20049;-53
2022/10/15 11:27:50;;;;;;;0.47;0.17;;;20.80;63.10;;;;;;5042882;28;20067;-55
2022/10/15 11:30:31;;;;;;;0.40;0.10;;;20.80;61.90;;;;;;5028090;28;20064;-55
2022/10/15 11:33:13;;;;;;;2.33;0.20;;;20.90;61.90;;;;;;5035431;28;20048;-55
2022/10/15 11:35:46;;;;;;;0.35;0.15;;;20.90;61.20;;;;;;5039478;28;20057;-56
2022/10/15 11:38:22;;;;;;;1.02;0.10;;;21.00;61.30;;;;;;5036604;28;20061;-55
2022/10/15 11:41:12;;;;;;;1.85;0.35;;;21.00;61.30;;;;;;5035694;28;20405;-55
2022/10/15 11:43:55;;;;;;;3.00;0.35;;;21.00;61.30;;;;;;5047782;28;20057;-54
2022/10/15 11:46:29;;;;;;;0.65;0.20;;;21.10;60.80;;;;;;5040802;28;20045;-55
2022/10/15 11:49:14;;;;;;;0.77;0.20;;;21.10;60.90;;;;;;5045969;28;20428;-50
2022/10/15 11:52:03;;;;;;;0.77;0.20;;;21.20;60.90;;;;;;5032061;28;20085;-54
2022/10/15 11:54:37;;;;;;;0.20;0.20;;;21.20;60.60;;;;;;5046798;28;20428;-53
2022/10/15 11:57:10;;;;;;;0.52;0.20;;;21.30;60.80;;;;;;5042247;28;21295;-55
2022/10/15 11:59:42;;;;;;;1.20;0.25;;;21.30;60.60;;;;;;5035437;28;20064;-50
2022/10/15 12:02:13;;;;;;;0.52;0.22;;;21.30;60.60;;;;;;5030494;28;20053;-53
2022/10/15 12:04:44;;;;;;;0.70;0.30;;;21.30;60.40;;;;;;5038525;28;20056;-53
2022/10/15 12:07:16;;;;;;;0.85;0.22;;;21.40;60.00;;;;;;5034857;28;20048;-55
2022/10/15 12:09:48;;;;;;;0.73;0.22;;;21.40;60.00;;;;;;5046081;28;20086;-55
2022/10/15 12:12:28;;;;;;;0.60;0.15;;;21.40;59.90;;;;;;5030532;28;20424;-54
2022/10/15 12:15:20;;;;;;;0.30;0.10;;;21.40;59.80;;;;;;5035977;28;20421;-55
2022/10/15 12:17:53;;;;;;;1.08;0.25;;;21.40;59.80;;;;;;5044312;28;20056;-51
2022/10/15 12:20:22;;;;;;;3.30;0.20;;;21.40;59.80;;;;;;5043241;28;20057;-55
2022/10/15 12:22:57;;;;;;;1.92;0.10;;;21.40;59.90;;;;;;5039742;28;20057;-52
2022/10/15 12:25:48;;;;;;;0.50;0.10;;;21.50;59.90;;;;;;5043749;28;20049;-55
2022/10/15 12:28:21;;;;;;;0.40;0.20;;;21.50;59.50;;;;;;5004330;28;20052;-55
2022/10/15 12:30:56;;;;;;;0.82;0.20;;;21.40;59.60;;;;;;5031728;28;20064;-53
2022/10/15 12:33:31;;;;;;;0.85;0.20;;;21.40;59.60;;;;;;5038325;28;20076;-55
2022/10/15 12:36:00;;;;;;;0.30;0.20;;;21.50;59.80;;;;;;5041172;28;20370;-55
2022/10/15 12:38:30;;;;;;;1.23;0.20;;;21.40;59.80;;;;;;5046491;28;20049;-54
2022/10/15 12:41:03;;;;;;;0.70;0.30;;;21.40;59.90;;;;;;5034700;28;20053;-55
2022/10/15 12:43:35;;;;;;;0.35;0.20;;;21.50;60.00;;;;;;5044998;28;20060;-54
2022/10/15 12:46:04;;;;;;;0.15;0.10;;;21.40;59.90;;;;;;5044228;28;20056;-55
2022/10/15 12:48:35;;;;;;;0.82;0.30;;;21.40;59.80;;;;;;5038421;28;20053;-55
2022/10/15 12:51:39;;;;;;;0.75;0.20;;;21.40;59.90;;;;;;5027028;28;20052;-50
2022/10/15 12:54:39;;;;;;;0.57;0.10;;;21.40;59.80;;;;;;5034926;28;20061;-54
2022/10/15 12:57:39;;;;;;;0.95;0.10;;;21.40;59.80;;;;;;5032740;28;20052;-54
2022/10/15 13:00:33;;;;;;;0.38;0.20;;;21.40;59.80;;;;;;5031707;28;20053;-53
2022/10/15 13:03:24;;;;;;;0.43;0.10;;;21.50;59.90;;;;;;5038475;28;20052;-51
2022/10/15 13:05:54;;;;;;;0.30;0.10;;;21.50;59.80;;;;;;5025423;28;20496;-55